sensor_id;sensor_type;location;lat;lon;timestamp;pressure;altitude;pressure_sealevel;temperature;humidity
15694;BME280;7947;48.834;9.132;2023-02-28T00:00:13;98902.31;;;1.14;52.34
15694;BME280;7947;48.834;9.132;2023-02-28T00:03:16;98899.66;;;1.14;52.51
15694;BME280;7947;48.834;9.132;2023-02-28T00:06:20;98914.47;;;1.08;52.86
15694;BME280;7947;48.834;9.132;2023-02-28T00:09:24;98900.41;;;1.01;53.07
15694;BME280;7947;48.834;9.132;2023-02-28T00:12:27;98902.03;;;1.02;53.02
15694;BME280;7947;48.834;9.132;2023-02-28T00:15:30;98901.22;;;1.02;53.62
15694;BME280;7947;48.834;9.132;2023-02-28T00:18:33;98897.34;;;0.98;53.51
15694;BME280;7947;48.834;9.132;2023-02-28T00:21:36;98898.97;;;0.99;53.29
15694;BME280;7947;48.834;9.132;2023-02-28T00:24:43;98895.91;;;0.95;54.03
15694;BME280;7947;48.834;9.132;2023-02-28T00:27:47;98901.00;;;0.97;53.85
15694;BME280;7947;48.834;9.132;2023-02-28T00:30:50;98895.53;;;0.98;54.06
15694;BME280;7947;48.834;9.132;2023-02-28T00:33:53;98893.88;;;0.97;54.78
15694;BME280;7947;48.834;9.132;2023-02-28T00:36:56;98894.91;;;0.96;54.44
15694;BME280;7947;48.834;9.132;2023-02-28T00:40:00;98902.56;;;0.91;54.52
15694;BME280;7947;48.834;9.132;2023-02-28T00:43:06;98898.13;;;0.91;54.85
15694;BME280;7947;48.834;9.132;2023-02-28T00:46:08;98901.38;;;0.93;54.93
15694;BME280;7947;48.834;9.132;2023-02-28T00:49:11;98900.94;;;0.90;55.65
15694;BME280;7947;48.834;9.132;2023-02-28T00:52:14;98898.13;;;0.91;55.49
15694;BME280;7947;48.834;9.132;2023-02-28T00:55:18;98902.78;;;0.89;56.06
15694;BME280;7947;48.834;9.132;2023-02-28T00:58:21;98896.06;;;0.87;56.58
15694;BME280;7947;48.834;9.132;2023-02-28T01:01:24;98895.28;;;0.93;56.62
15694;BME280;7947;48.834;9.132;2023-02-28T01:04:28;98902.00;;;0.96;56.59
15694;BME280;7947;48.834;9.132;2023-02-28T01:07:31;98896.50;;;0.90;56.87
15694;BME280;7947;48.834;9.132;2023-02-28T01:10:35;98900.34;;;0.88;57.07
15694;BME280;7947;48.834;9.132;2023-02-28T01:13:39;98905.13;;;0.78;57.04
15694;BME280;7947;48.834;9.132;2023-02-28T01:16:43;98887.06;;;0.75;57.82
15694;BME280;7947;48.834;9.132;2023-02-28T01:19:46;98887.28;;;0.80;57.71
15694;BME280;7947;48.834;9.132;2023-02-28T01:22:49;98877.75;;;0.79;58.09
15694;BME280;7947;48.834;9.132;2023-02-28T01:25:53;98885.63;;;0.72;58.53
15694;BME280;7947;48.834;9.132;2023-02-28T01:28:56;98884.28;;;0.83;58.43
15694;BME280;7947;48.834;9.132;2023-02-28T01:31:59;98885.06;;;0.83;58.57
15694;BME280;7947;48.834;9.132;2023-02-28T01:35:02;98882.16;;;0.72;58.92
15694;BME280;7947;48.834;9.132;2023-02-28T01:38:05;98883.53;;;0.68;59.36
15694;BME280;7947;48.834;9.132;2023-02-28T01:41:26;98890.06;;;0.72;59.57
15694;BME280;7947;48.834;9.132;2023-02-28T01:44:55;98885.03;;;0.77;59.54
15694;BME280;7947;48.834;9.132;2023-02-28T01:48:02;98881.78;;;0.75;59.91
15694;BME280;7947;48.834;9.132;2023-02-28T01:51:11;98882.19;;;0.78;59.22
15694;BME280;7947;48.834;9.132;2023-02-28T01:54:19;98888.53;;;0.84;60.08
15694;BME280;7947;48.834;9.132;2023-02-28T01:57:28;98877.13;;;0.77;59.83
15694;BME280;7947;48.834;9.132;2023-02-28T02:00:32;98885.63;;;0.72;59.84
15694;BME280;7947;48.834;9.132;2023-02-28T02:03:35;98871.78;;;0.70;60.06
15694;BME280;7947;48.834;9.132;2023-02-28T02:06:42;98872.41;;;0.72;60.28
15694;BME280;7947;48.834;9.132;2023-02-28T02:09:46;98865.53;;;0.71;60.39
15694;BME280;7947;48.834;9.132;2023-02-28T02:16:34;98864.50;;;0.72;60.96
15694;BME280;7947;48.834;9.132;2023-02-28T02:27:08;98857.75;;;0.63;60.91
15694;BME280;7947;48.834;9.132;2023-02-28T02:34:16;98845.31;;;0.57;61.46
15694;BME280;7947;48.834;9.132;2023-02-28T02:37:29;98853.88;;;0.66;61.85
15694;BME280;7947;48.834;9.132;2023-02-28T02:40:41;98854.50;;;0.68;61.91
15694;BME280;7947;48.834;9.132;2023-02-28T02:43:49;98851.50;;;0.71;61.44
15694;BME280;7947;48.834;9.132;2023-02-28T02:46:57;98853.75;;;0.74;61.76
15694;BME280;7947;48.834;9.132;2023-02-28T02:50:05;98857.44;;;0.79;61.63
15694;BME280;7947;48.834;9.132;2023-02-28T02:53:10;98853.16;;;0.78;61.60
15694;BME280;7947;48.834;9.132;2023-02-28T02:56:15;98854.16;;;0.77;62.14
15694;BME280;7947;48.834;9.132;2023-02-28T02:59:21;98851.09;;;0.74;62.21
15694;BME280;7947;48.834;9.132;2023-02-28T03:02:26;98850.31;;;0.73;62.39
15694;BME280;7947;48.834;9.132;2023-02-28T03:05:41;98861.84;;;0.72;61.93
15694;BME280;7947;48.834;9.132;2023-02-28T03:08:47;98869.31;;;0.62;62.72
15694;BME280;7947;48.834;9.132;2023-02-28T03:11:53;98850.22;;;0.60;63.44
15694;BME280;7947;48.834;9.132;2023-02-28T03:15:05;98861.81;;;0.66;63.62
15694;BME280;7947;48.834;9.132;2023-02-28T03:18:18;98865.53;;;0.71;62.90
15694;BME280;7947;48.834;9.132;2023-02-28T03:21:34;98865.94;;;0.75;63.22
15694;BME280;7947;48.834;9.132;2023-02-28T03:24:43;98865.69;;;0.70;63.77
15694;BME280;7947;48.834;9.132;2023-02-28T03:27:59;98863.06;;;0.70;63.88
15694;BME280;7947;48.834;9.132;2023-02-28T03:31:08;98862.34;;;0.55;64.26
15694;BME280;7947;48.834;9.132;2023-02-28T03:34:16;98857.69;;;0.57;64.80
15694;BME280;7947;48.834;9.132;2023-02-28T03:37:24;98858.94;;;0.61;64.48
15694;BME280;7947;48.834;9.132;2023-02-28T03:40:30;98862.84;;;0.65;65.06
15694;BME280;7947;48.834;9.132;2023-02-28T03:43:38;98852.31;;;0.71;63.83
15694;BME280;7947;48.834;9.132;2023-02-28T03:46:46;98853.75;;;0.74;64.69
15694;BME280;7947;48.834;9.132;2023-02-28T03:49:53;98860.66;;;0.75;64.44
15694;BME280;7947;48.834;9.132;2023-02-28T03:53:02;98856.44;;;0.80;64.50
15694;BME280;7947;48.834;9.132;2023-02-28T03:56:11;98851.97;;;0.81;65.00
15694;BME280;7947;48.834;9.132;2023-02-28T03:59:18;98848.97;;;0.90;64.09
15694;BME280;7947;48.834;9.132;2023-02-28T04:02:23;98856.91;;;0.90;64.18
15694;BME280;7947;48.834;9.132;2023-02-28T04:05:26;98852.03;;;0.94;63.74
15694;BME280;7947;48.834;9.132;2023-02-28T04:08:31;98857.69;;;0.91;63.65
15694;BME280;7947;48.834;9.132;2023-02-28T04:11:37;98861.78;;;0.93;64.14
15694;BME280;7947;48.834;9.132;2023-02-28T04:14:40;98866.06;;;0.95;64.12
15694;BME280;7947;48.834;9.132;2023-02-28T04:17:43;98871.34;;;0.95;64.60
15694;BME280;7947;48.834;9.132;2023-02-28T04:20:46;98872.31;;;0.87;64.41
15694;BME280;7947;48.834;9.132;2023-02-28T04:23:50;98859.75;;;0.89;64.44
15694;BME280;7947;48.834;9.132;2023-02-28T04:26:54;98869.63;;;0.80;64.64
15694;BME280;7947;48.834;9.132;2023-02-28T04:29:57;98869.22;;;0.83;65.16
15694;BME280;7947;48.834;9.132;2023-02-28T04:33:00;98871.09;;;0.89;64.61
15694;BME280;7947;48.834;9.132;2023-02-28T04:36:04;98863.94;;;0.83;64.85
15694;BME280;7947;48.834;9.132;2023-02-28T04:39:10;98857.69;;;0.84;65.34
15694;BME280;7947;48.834;9.132;2023-02-28T04:42:13;98864.41;;;0.93;64.76
15694;BME280;7947;48.834;9.132;2023-02-28T04:45:16;98856.50;;;0.93;64.35
15694;BME280;7947;48.834;9.132;2023-02-28T04:48:19;98857.69;;;0.91;64.19
15694;BME280;7947;48.834;9.132;2023-02-28T04:51:22;98863.41;;;0.95;64.81
15694;BME280;7947;48.834;9.132;2023-02-28T04:54:27;98862.53;;;0.87;64.41
15694;BME280;7947;48.834;9.132;2023-02-28T04:57:30;98864.56;;;0.79;64.41
15694;BME280;7947;48.834;9.132;2023-02-28T05:00:33;98866.16;;;0.80;65.30
15694;BME280;7947;48.834;9.132;2023-02-28T05:03:36;98870.03;;;0.84;64.95
15694;BME280;7947;48.834;9.132;2023-02-28T05:06:38;98860.13;;;0.86;64.39
15694;BME280;7947;48.834;9.132;2023-02-28T05:09:43;98857.88;;;0.83;64.73
15694;BME280;7947;48.834;9.132;2023-02-28T05:12:45;98863.88;;;0.70;65.86
15694;BME280;7947;48.834;9.132;2023-02-28T05:15:49;98859.78;;;0.61;65.60
15694;BME280;7947;48.834;9.132;2023-02-28T05:18:52;98865.69;;;0.70;65.52
15694;BME280;7947;48.834;9.132;2023-02-28T05:21:55;98854.91;;;0.65;65.57
15694;BME280;7947;48.834;9.132;2023-02-28T05:25:00;98864.06;;;0.69;66.26
15694;BME280;7947;48.834;9.132;2023-02-28T05:28:02;98872.03;;;0.75;65.67
15694;BME280;7947;48.834;9.132;2023-02-28T05:31:05;98866.09;;;0.67;65.67
15694;BME280;7947;48.834;9.132;2023-02-28T05:34:09;98864.91;;;0.69;66.43
15694;BME280;7947;48.834;9.132;2023-02-28T05:37:14;98868.59;;;0.81;65.32
15694;BME280;7947;48.834;9.132;2023-02-28T05:40:19;98877.59;;;0.87;65.71
15694;BME280;7947;48.834;9.132;2023-02-28T05:43:22;98870.03;;;0.84;65.48
15694;BME280;7947;48.834;9.132;2023-02-28T05:46:25;98874.22;;;0.65;65.91
15694;BME280;7947;48.834;9.132;2023-02-28T05:49:28;98868.78;;;0.73;65.57
15694;BME280;7947;48.834;9.132;2023-02-28T05:52:31;98868.53;;;0.68;65.77
15694;BME280;7947;48.834;9.132;2023-02-28T05:55:35;98873.66;;;0.76;65.14
15694;BME280;7947;48.834;9.132;2023-02-28T05:58:38;98874.28;;;0.78;65.13
15694;BME280;7947;48.834;9.132;2023-02-28T06:01:42;98878.88;;;0.63;65.62
15694;BME280;7947;48.834;9.132;2023-02-28T06:04:49;98876.06;;;0.71;65.93
15694;BME280;7947;48.834;9.132;2023-02-28T06:07:52;98877.06;;;0.64;65.82
15694;BME280;7947;48.834;9.132;2023-02-28T06:10:56;98884.34;;;0.62;66.09
15694;BME280;7947;48.834;9.132;2023-02-28T06:13:59;98885.97;;;0.63;66.34
15694;BME280;7947;48.834;9.132;2023-02-28T06:17:03;98884.38;;;0.68;66.18
15694;BME280;7947;48.834;9.132;2023-02-28T06:20:07;98892.34;;;0.75;65.40
15694;BME280;7947;48.834;9.132;2023-02-28T06:23:10;98890.66;;;0.67;65.45
15694;BME280;7947;48.834;9.132;2023-02-28T06:26:14;98886.78;;;0.63;65.77
15694;BME280;7947;48.834;9.132;2023-02-28T06:29:17;98892.88;;;0.64;66.31
15694;BME280;7947;48.834;9.132;2023-02-28T06:32:20;98903.25;;;0.72;65.90
15694;BME280;7947;48.834;9.132;2023-02-28T06:35:23;98896.09;;;0.59;65.58
15694;BME280;7947;48.834;9.132;2023-02-28T06:38:26;98904.81;;;0.60;66.11
15694;BME280;7947;48.834;9.132;2023-02-28T06:41:30;98901.56;;;0.58;66.58
15694;BME280;7947;48.834;9.132;2023-02-28T06:44:55;98905.25;;;0.63;66.74
15694;BME280;7947;48.834;9.132;2023-02-28T06:47:58;98912.56;;;0.68;66.19
15694;BME280;7947;48.834;9.132;2023-02-28T06:51:03;98909.72;;;0.63;66.11
15694;BME280;7947;48.834;9.132;2023-02-28T06:54:05;98915.91;;;0.76;66.21
15694;BME280;7947;48.834;9.132;2023-02-28T06:57:12;98913.31;;;0.83;65.16
15694;BME280;7947;48.834;9.132;2023-02-28T07:00:16;98910.28;;;0.86;65.36
15694;BME280;7947;48.834;9.132;2023-02-28T07:03:19;98908.09;;;0.96;65.99
15694;BME280;7947;48.834;9.132;2023-02-28T07:06:22;98911.38;;;1.05;64.66
15694;BME280;7947;48.834;9.132;2023-02-28T07:09:25;98913.84;;;1.06;64.47
15694;BME280;7947;48.834;9.132;2023-02-28T07:12:32;98914.47;;;1.08;64.73
15694;BME280;7947;48.834;9.132;2023-02-28T07:15:35;98918.97;;;1.14;64.42
15694;BME280;7947;48.834;9.132;2023-02-28T07:18:43;98929.97;;;1.18;64.21
15694;BME280;7947;48.834;9.132;2023-02-28T07:21:48;98921.84;;;1.19;63.34
15694;BME280;7947;48.834;9.132;2023-02-28T07:24:51;98925.09;;;1.21;63.34
15694;BME280;7947;48.834;9.132;2023-02-28T07:27:56;98916.34;;;1.21;63.70
15694;BME280;7947;48.834;9.132;2023-02-28T07:31:03;98922.09;;;1.31;63.71
15694;BME280;7947;48.834;9.132;2023-02-28T07:34:07;98926.81;;;1.35;62.85
15694;BME280;7947;48.834;9.132;2023-02-28T07:37:10;98918.84;;;1.29;63.20
15694;BME280;7947;48.834;9.132;2023-02-28T07:40:14;98922.09;;;1.31;62.81
15694;BME280;7947;48.834;9.132;2023-02-28T07:43:18;98926.19;;;1.33;63.41
15694;BME280;7947;48.834;9.132;2023-02-28T07:46:21;98933.13;;;1.47;62.75
15694;BME280;7947;48.834;9.132;2023-02-28T07:49:25;98924.41;;;1.47;62.78
15694;BME280;7947;48.834;9.132;2023-02-28T07:52:28;98927.09;;;1.60;62.56
15694;BME280;7947;48.834;9.132;2023-02-28T07:55:30;98939.50;;;1.53;61.88
15694;BME280;7947;48.834;9.132;2023-02-28T07:58:35;98936.81;;;1.46;62.41
15694;BME280;7947;48.834;9.132;2023-02-28T08:01:38;98934.97;;;1.47;62.51
15694;BME280;7947;48.834;9.132;2023-02-28T08:04:41;98936.03;;;1.52;61.88
15694;BME280;7947;48.834;9.132;2023-02-28T08:07:44;98941.94;;;1.54;61.64
15694;BME280;7947;48.834;9.132;2023-02-28T08:10:46;98940.63;;;1.37;61.96
15694;BME280;7947;48.834;9.132;2023-02-28T08:13:51;98939.16;;;1.28;62.89
15694;BME280;7947;48.834;9.132;2023-02-28T08:16:54;98949.50;;;1.30;63.75
15694;BME280;7947;48.834;9.132;2023-02-28T08:19:57;98946.09;;;1.36;63.90
15694;BME280;7947;48.834;9.132;2023-02-28T08:22:59;98938.19;;;1.42;63.07
15694;BME280;7947;48.834;9.132;2023-02-28T08:26:03;98941.94;;;1.61;62.95
15694;BME280;7947;48.834;9.132;2023-02-28T08:29:07;98948.06;;;1.68;62.56
15694;BME280;7947;48.834;9.132;2023-02-28T08:32:10;98939.97;;;1.76;61.63
15694;BME280;7947;48.834;9.132;2023-02-28T08:35:29;98951.97;;;1.72;62.00
15694;BME280;7947;48.834;9.132;2023-02-28T08:38:32;98942.78;;;1.74;61.98
15694;BME280;7947;48.834;9.132;2023-02-28T08:41:35;98948.53;;;1.84;61.64
15694;BME280;7947;48.834;9.132;2023-02-28T08:44:39;98958.88;;;1.73;61.03
15694;BME280;7947;48.834;9.132;2023-02-28T08:47:43;98947.47;;;1.66;62.29
15694;BME280;7947;48.834;9.132;2023-02-28T08:50:54;98945.06;;;1.77;62.19
15694;BME280;7947;48.834;9.132;2023-02-28T08:54:08;98953.78;;;1.71;61.72
15694;BME280;7947;48.834;9.132;2023-02-28T08:57:12;98956.47;;;1.78;62.45
15694;BME280;7947;48.834;9.132;2023-02-28T09:00:17;98953.41;;;1.81;61.85
15694;BME280;7947;48.834;9.132;2023-02-28T09:03:20;98961.34;;;1.81;61.52
15694;BME280;7947;48.834;9.132;2023-02-28T09:06:25;98967.16;;;1.63;61.89
15694;BME280;7947;48.834;9.132;2023-02-28T09:09:29;98956.56;;;1.57;61.79
15694;BME280;7947;48.834;9.132;2023-02-28T09:12:34;98955.34;;;1.53;62.52
15694;BME280;7947;48.834;9.132;2023-02-28T09:15:39;98961.84;;;1.57;62.44
15694;BME280;7947;48.834;9.132;2023-02-28T09:18:42;98960.00;;;1.51;62.68
15694;BME280;7947;48.834;9.132;2023-02-28T09:21:45;98961.47;;;1.60;62.95
15694;BME280;7947;48.834;9.132;2023-02-28T09:24:48;98956.81;;;1.68;63.00
15694;BME280;7947;48.834;9.132;2023-02-28T09:27:51;98962.16;;;1.81;63.56
15694;BME280;7947;48.834;9.132;2023-02-28T09:30:55;98963.59;;;1.91;63.30
15694;BME280;7947;48.834;9.132;2023-02-28T09:33:59;98971.16;;;2.00;61.90
15694;BME280;7947;48.834;9.132;2023-02-28T09:37:02;98967.13;;;2.11;60.88
15694;BME280;7947;48.834;9.132;2023-02-28T09:40:06;98964.69;;;2.16;61.85
15694;BME280;7947;48.834;9.132;2023-02-28T09:43:12;98966.75;;;2.20;61.19
15694;BME280;7947;48.834;9.132;2023-02-28T09:46:32;98968.56;;;2.20;59.30
15694;BME280;7947;48.834;9.132;2023-02-28T09:49:39;98973.22;;;2.18;58.30
15694;BME280;7947;48.834;9.132;2023-02-28T09:52:48;98971.16;;;2.00;58.32
15694;BME280;7947;48.834;9.132;2023-02-28T09:55:54;98971.56;;;1.97;58.61
15694;BME280;7947;48.834;9.132;2023-02-28T09:59:01;98974.59;;;1.94;59.65
15694;BME280;7947;48.834;9.132;2023-02-28T10:02:17;98975.69;;;2.13;59.12
15694;BME280;7947;48.834;9.132;2023-02-28T10:05:24;98986.44;;;2.11;58.21
15694;BME280;7947;48.834;9.132;2023-02-28T10:08:32;98973.34;;;1.90;58.48
15694;BME280;7947;48.834;9.132;2023-02-28T10:11:44;98980.50;;;1.90;59.94
15694;BME280;7947;48.834;9.132;2023-02-28T10:14:54;98967.91;;;1.92;59.68
15694;BME280;7947;48.834;9.132;2023-02-28T10:18:02;98975.66;;;2.06;58.69
15694;BME280;7947;48.834;9.132;2023-02-28T10:21:17;98980.16;;;2.12;58.54
15694;BME280;7947;48.834;9.132;2023-02-28T10:24:27;98983.84;;;2.31;59.62
15694;BME280;7947;48.834;9.132;2023-02-28T10:27:31;98988.75;;;2.47;58.47
15694;BME280;7947;48.834;9.132;2023-02-28T10:30:36;98986.53;;;2.63;57.93
15694;BME280;7947;48.834;9.132;2023-02-28T10:33:40;98985.31;;;2.53;57.45
15694;BME280;7947;48.834;9.132;2023-02-28T10:36:44;98996.28;;;2.50;57.42
15694;BME280;7947;48.834;9.132;2023-02-28T10:39:47;98992.81;;;2.36;57.57
15694;BME280;7947;48.834;9.132;2023-02-28T10:42:55;98989.19;;;2.57;58.69
15694;BME280;7947;48.834;9.132;2023-02-28T10:46:01;98990.59;;;2.66;57.87
15694;BME280;7947;48.834;9.132;2023-02-28T10:49:13;98972.91;;;2.86;58.48
15694;BME280;7947;48.834;9.132;2023-02-28T10:52:36;98983.88;;;3.09;57.99
15694;BME280;7947;48.834;9.132;2023-02-28T10:55:38;98987.94;;;3.18;56.31
15694;BME280;7947;48.834;9.132;2023-02-28T10:58:53;98977.06;;;3.39;55.32
15694;BME280;7947;48.834;9.132;2023-02-28T11:01:57;98982.75;;;3.49;54.83
15694;BME280;7947;48.834;9.132;2023-02-28T11:05:01;98979.81;;;3.77;55.28
15694;BME280;7947;48.834;9.132;2023-02-28T11:08:10;98977.84;;;4.04;53.73
15694;BME280;7947;48.834;9.132;2023-02-28T11:11:15;98973.19;;;4.37;53.33
15694;BME280;7947;48.834;9.132;2023-02-28T11:14:21;98973.34;;;4.42;52.12
15694;BME280;7947;48.834;9.132;2023-02-28T11:17:26;98972.56;;;4.35;52.11
15694;BME280;7947;48.834;9.132;2023-02-28T11:20:33;98970.66;;;4.11;52.28
15694;BME280;7947;48.834;9.132;2023-02-28T11:23:40;98965.97;;;4.13;52.87
15694;BME280;7947;48.834;9.132;2023-02-28T11:26:45;98958.19;;;4.18;53.74
15694;BME280;7947;48.834;9.132;2023-02-28T11:29:50;98957.75;;;4.21;51.92
15694;BME280;7947;48.834;9.132;2023-02-28T11:32:53;98959.19;;;4.17;52.39
15694;BME280;7947;48.834;9.132;2023-02-28T11:36:00;98959.53;;;4.33;53.40
15694;BME280;7947;48.834;9.132;2023-02-28T11:39:10;98962.19;;;4.58;52.01
15694;BME280;7947;48.834;9.132;2023-02-28T11:42:27;98954.06;;;4.78;51.25
15694;BME280;7947;48.834;9.132;2023-02-28T11:45:45;98947.59;;;4.92;50.65
15694;BME280;7947;48.834;9.132;2023-02-28T11:48:57;98943.88;;;5.17;51.48
15694;BME280;7947;48.834;9.132;2023-02-28T11:52:09;98946.78;;;5.16;49.47
15694;BME280;7947;48.834;9.132;2023-02-28T11:55:19;98949.56;;;5.21;49.06
15694;BME280;7947;48.834;9.132;2023-02-28T11:58:42;98948.97;;;5.19;49.77
15694;BME280;7947;48.834;9.132;2023-02-28T12:02:05;98944.75;;;5.11;50.20
15694;BME280;7947;48.834;9.132;2023-02-28T12:05:20;98938.41;;;5.30;49.91
15694;BME280;7947;48.834;9.132;2023-02-28T12:08:43;98933.72;;;5.50;49.41
15694;BME280;7947;48.834;9.132;2023-02-28T12:11:51;98927.94;;;5.53;48.63
15694;BME280;7947;48.834;9.132;2023-02-28T12:18:38;98922.03;;;5.88;49.05
15694;BME280;7947;48.834;9.132;2023-02-28T12:22:03;98925.34;;;6.13;49.16
15694;BME280;7947;48.834;9.132;2023-02-28T12:28:53;98916.63;;;6.35;45.95
15694;BME280;7947;48.834;9.132;2023-02-28T12:32:05;98918.59;;;5.99;47.44
15694;BME280;7947;48.834;9.132;2023-02-28T12:35:12;98917.75;;;5.98;47.21
15694;BME280;7947;48.834;9.132;2023-02-28T12:38:19;98913.25;;;6.28;47.66
15694;BME280;7947;48.834;9.132;2023-02-28T12:41:40;98907.06;;;6.58;45.64
15694;BME280;7947;48.834;9.132;2023-02-28T12:44:49;98909.41;;;6.77;46.12
15694;BME280;7947;48.834;9.132;2023-02-28T12:47:57;98904.41;;;7.15;44.98
15694;BME280;7947;48.834;9.132;2023-02-28T12:51:00;98901.81;;;7.32;45.49
15694;BME280;7947;48.834;9.132;2023-02-28T12:54:13;98896.28;;;7.10;43.35
15694;BME280;7947;48.834;9.132;2023-02-28T12:57:24;98889.22;;;7.16;46.10
15694;BME280;7947;48.834;9.132;2023-02-28T13:00:34;98886.56;;;7.56;45.33
15694;BME280;7947;48.834;9.132;2023-02-28T13:04:05;98886.13;;;7.59;43.31
15694;BME280;7947;48.834;9.132;2023-02-28T13:07:37;98886.66;;;7.61;43.65
15694;BME280;7947;48.834;9.132;2023-02-28T13:10:45;98880.84;;;7.92;43.57
15694;BME280;7947;48.834;9.132;2023-02-28T13:13:48;98878.22;;;8.37;43.80
15694;BME280;7947;48.834;9.132;2023-02-28T13:17:01;98872.72;;;8.43;41.98
15694;BME280;7947;48.834;9.132;2023-02-28T13:20:15;98877.88;;;8.33;42.38
15694;BME280;7947;48.834;9.132;2023-02-28T13:23:38;98882.44;;;8.49;42.56
15694;BME280;7947;48.834;9.132;2023-02-28T13:31:04;98885.25;;;8.43;40.96
15694;BME280;7947;48.834;9.132;2023-02-28T13:34:15;98873.63;;;8.32;41.84
15694;BME280;7947;48.834;9.132;2023-02-28T13:37:34;98869.31;;;8.64;42.08
15694;BME280;7947;48.834;9.132;2023-02-28T13:40:37;98865.53;;;8.98;42.37
15694;BME280;7947;48.834;9.132;2023-02-28T13:43:59;98865.16;;;9.28;40.60
15694;BME280;7947;48.834;9.132;2023-02-28T13:47:24;98865.56;;;9.20;39.85
15694;BME280;7947;48.834;9.132;2023-02-28T13:50:33;98869.06;;;9.21;39.68
15694;BME280;7947;48.834;9.132;2023-02-28T13:53:59;98866.59;;;9.36;40.03
15694;BME280;7947;48.834;9.132;2023-02-28T13:57:18;98877.47;;;9.07;40.39
15694;BME280;7947;48.834;9.132;2023-02-28T14:00:31;98871.28;;;9.07;40.21
15694;BME280;7947;48.834;9.132;2023-02-28T14:04:00;98877.84;;;8.61;39.92
15694;BME280;7947;48.834;9.132;2023-02-28T14:07:16;98872.06;;;8.53;41.26
15694;BME280;7947;48.834;9.132;2023-02-28T14:10:25;98875.00;;;8.23;40.97
15694;BME280;7947;48.834;9.132;2023-02-28T14:13:40;98867.06;;;8.11;41.51
15694;BME280;7947;48.834;9.132;2023-02-28T14:16:47;98871.13;;;8.14;41.84
15694;BME280;7947;48.834;9.132;2023-02-28T14:19:51;98868.28;;;8.32;41.61
15694;BME280;7947;48.834;9.132;2023-02-28T14:23:00;98877.09;;;8.49;40.96
15694;BME280;7947;48.834;9.132;2023-02-28T14:26:14;98870.28;;;8.75;41.31
15694;BME280;7947;48.834;9.132;2023-02-28T14:29:34;98868.19;;;8.60;40.67
15694;BME280;7947;48.834;9.132;2023-02-28T14:32:45;98869.72;;;8.73;41.15
15694;BME280;7947;48.834;9.132;2023-02-28T14:36:01;98863.94;;;8.81;41.00
15694;BME280;7947;48.834;9.132;2023-02-28T14:39:11;98866.88;;;8.96;41.20
15694;BME280;7947;48.834;9.132;2023-02-28T14:42:28;98859.78;;;9.06;39.89
15694;BME280;7947;48.834;9.132;2023-02-28T14:45:32;98874.16;;;8.67;40.41
15694;BME280;7947;48.834;9.132;2023-02-28T14:48:37;98872.50;;;8.61;40.31
15694;BME280;7947;48.834;9.132;2023-02-28T14:51:39;98874.81;;;8.13;41.35
15694;BME280;7947;48.834;9.132;2023-02-28T14:54:44;98880.41;;;7.95;41.86
15694;BME280;7947;48.834;9.132;2023-02-28T14:57:52;98875.84;;;7.67;43.22
15694;BME280;7947;48.834;9.132;2023-02-28T15:00:57;98879.06;;;7.41;44.48
15694;BME280;7947;48.834;9.132;2023-02-28T15:04:02;98887.28;;;7.40;43.14
15694;BME280;7947;48.834;9.132;2023-02-28T15:07:08;98882.41;;;7.48;43.64
15694;BME280;7947;48.834;9.132;2023-02-28T15:10:17;98881.50;;;7.43;43.84
15694;BME280;7947;48.834;9.132;2023-02-28T15:13:21;98883.09;;;7.55;44.02
15694;BME280;7947;48.834;9.132;2023-02-28T15:16:28;98884.34;;;7.64;44.08
15694;BME280;7947;48.834;9.132;2023-02-28T15:19:35;98890.75;;;7.52;43.68
15694;BME280;7947;48.834;9.132;2023-02-28T15:22:39;98884.56;;;7.11;43.66
15694;BME280;7947;48.834;9.132;2023-02-28T15:25:43;98874.03;;;7.05;44.80
15694;BME280;7947;48.834;9.132;2023-02-28T15:28:48;98891.66;;;7.06;44.60
15694;BME280;7947;48.834;9.132;2023-02-28T15:31:56;98889.34;;;6.98;44.60
15694;BME280;7947;48.834;9.132;2023-02-28T15:35:19;98882.84;;;6.94;45.55
15694;BME280;7947;48.834;9.132;2023-02-28T15:38:23;98894.31;;;6.94;44.88
15694;BME280;7947;48.834;9.132;2023-02-28T15:41:29;98888.75;;;6.96;44.87
15694;BME280;7947;48.834;9.132;2023-02-28T15:44:33;98888.06;;;6.89;44.52
15694;BME280;7947;48.834;9.132;2023-02-28T15:47:38;98890.75;;;6.66;45.18
15694;BME280;7947;48.834;9.132;2023-02-28T15:50:41;98886.06;;;6.50;46.18
15694;BME280;7947;48.834;9.132;2023-02-28T15:53:48;98883.16;;;6.51;46.44
15694;BME280;7947;48.834;9.132;2023-02-28T15:56:55;98884.31;;;6.32;45.63
15694;BME280;7947;48.834;9.132;2023-02-28T16:00:01;98889.16;;;6.35;46.48
15694;BME280;7947;48.834;9.132;2023-02-28T16:03:23;98892.28;;;6.32;46.92
15694;BME280;7947;48.834;9.132;2023-02-28T16:06:37;98888.47;;;6.28;47.37
15694;BME280;7947;48.834;9.132;2023-02-28T16:09:40;98883.47;;;6.31;46.72
15694;BME280;7947;48.834;9.132;2023-02-28T16:12:45;98889.88;;;6.30;47.12
15694;BME280;7947;48.834;9.132;2023-02-28T16:15:48;98894.97;;;6.32;46.65
15694;BME280;7947;48.834;9.132;2023-02-28T16:18:54;98895.44;;;6.29;46.58
15694;BME280;7947;48.834;9.132;2023-02-28T16:21:58;98904.19;;;6.18;46.66
15694;BME280;7947;48.834;9.132;2023-02-28T16:25:04;98900.81;;;6.11;46.66
15694;BME280;7947;48.834;9.132;2023-02-28T16:28:18;98896.03;;;6.01;47.52
15694;BME280;7947;48.834;9.132;2023-02-28T16:31:24;98904.25;;;6.00;47.08
15694;BME280;7947;48.834;9.132;2023-02-28T16:34:27;98917.88;;;5.92;47.72
15694;BME280;7947;48.834;9.132;2023-02-28T16:37:31;98912.69;;;5.79;48.45
15694;BME280;7947;48.834;9.132;2023-02-28T16:40:35;98913.00;;;5.71;48.29
15694;BME280;7947;48.834;9.132;2023-02-28T16:43:39;98915.06;;;5.69;47.96
15694;BME280;7947;48.834;9.132;2023-02-28T16:46:42;98920.94;;;5.59;49.42
15694;BME280;7947;48.834;9.132;2023-02-28T16:49:45;98926.09;;;5.54;49.26
15694;BME280;7947;48.834;9.132;2023-02-28T16:52:49;98925.38;;;5.47;49.41
15694;BME280;7947;48.834;9.132;2023-02-28T16:55:53;98930.22;;;5.50;49.56
15694;BME280;7947;48.834;9.132;2023-02-28T16:59:00;98943.75;;;5.48;49.50
15694;BME280;7947;48.834;9.132;2023-02-28T17:02:08;98940.00;;;5.38;50.48
15694;BME280;7947;48.834;9.132;2023-02-28T17:05:14;98932.81;;;5.38;50.59
15694;BME280;7947;48.834;9.132;2023-02-28T17:08:18;98942.44;;;5.39;50.86
15694;BME280;7947;48.834;9.132;2023-02-28T17:11:21;98943.31;;;5.33;50.85
15694;BME280;7947;48.834;9.132;2023-02-28T17:14:26;98951.28;;;5.33;50.73
15694;BME280;7947;48.834;9.132;2023-02-28T17:17:29;98956.25;;;5.30;50.39
15694;BME280;7947;48.834;9.132;2023-02-28T17:20:32;98955.88;;;5.26;51.13
15694;BME280;7947;48.834;9.132;2023-02-28T17:23:35;98954.69;;;5.22;50.41